Time;durP1;ratioP1;P1;durP2;ratioP2;P2;SDS_P1;SDS_P2;PMS_P1;PMS_P2;Temp;Humidity;BMP_temperature;BMP_pressure;BME280_temperature;BME280_humidity;BME280_pressure;Samples;Min_cycle;Max_cycle;Signal;HPM_P1;HPM_P2
2022/10/05 00:02:23;;;;;;;16.83;9.65;;;;;;;;;;5051606;28;20028;-79
2022/10/05 00:04:55;;;;;;;18.23;10.25;;;;;;;;;;5053578;28;20092;-79
2022/10/05 00:07:22;;;;;;;19.85;9.60;;;;;;;;;;5052696;28;20075;-80
2022/10/05 00:09:57;;;;;;;16.58;9.88;;;;;;;;;;5051806;28;20106;-79
2022/10/05 00:12:24;;;;;;;22.83;9.90;;;;;;;;;;5051512;28;20477;-80
2022/10/05 00:14:54;;;;;;;14.40;9.48;;;;;;;;;;5052553;28;20029;-79
2022/10/05 00:17:22;;;;;;;16.08;8.80;;;;;;;;;;5052311;28;20036;-78
2022/10/05 00:19:52;;;;;;;14.65;9.77;;;;;;;;;;5052684;28;20036;-79
2022/10/05 00:22:32;;;;;;;19.70;10.43;;;;;;;;;;5052274;28;20388;-80
2022/10/05 00:25:00;;;;;;;21.15;9.90;;;;;;;;;;5051165;28;20025;-81
2022/10/05 00:27:32;;;;;;;16.60;10.18;;;;;;;;;;5051590;28;20101;-78
2022/10/05 00:30:01;;;;;;;22.33;10.05;;;;;;;;;;5051365;28;20143;-80
2022/10/05 00:32:27;;;;;;;17.05;9.30;;;;;;;;;;5060854;28;20056;-79
2022/10/05 00:34:52;;;;;;;17.80;9.48;;;;;;;;;;5053493;28;20047;-80
2022/10/05 00:37:18;;;;;;;16.13;9.60;;;;;;;;;;5053385;28;20024;-77
2022/10/05 00:39:44;;;;;;;16.07;9.27;;;;;;;;;;5072826;28;20080;-80
2022/10/05 00:42:17;;;;;;;15.35;9.40;;;;;;;;;;5057607;28;20032;-80
2022/10/05 00:45:09;;;;;;;18.38;9.55;;;;;;;;;;5075544;28;20058;-80
2022/10/05 00:47:46;;;;;;;;;;;;;;;;;;5076147;28;20050;-80
2022/10/05 00:50:24;;;;;;;22.35;8.73;;;;;;;;;;5057034;28;20006;-79
2022/10/05 00:52:55;;;;;;;18.93;9.73;;;;;;;;;;5075175;28;20108;-77
2022/10/05 00:55:36;;;;;;;17.95;8.15;;;;;;;;;;5074979;28;20052;-81
2022/10/05 00:58:21;;;;;;;15.20;8.67;;;;;;;;;;5056681;28;20029;-80
2022/10/05 01:01:01;;;;;;;18.85;9.70;;;;;;;;;;5057015;28;20114;-80
2022/10/05 01:03:33;;;;;;;20.00;9.77;;;;;;;;;;5056430;28;20077;-80
2022/10/05 01:06:22;;;;;;;20.73;10.13;;;;;;;;;;5074245;28;20470;-79
2022/10/05 01:08:56;;;;;;;18.90;9.90;;;;;;;;;;5048338;28;20024;-78
2022/10/05 01:11:40;;;;;;;15.73;9.93;;;;;;;;;;5074377;28;20111;-79
2022/10/05 01:14:21;;;;;;;19.40;9.50;;;;;;;;;;5056422;28;20476;-80
2022/10/05 01:17:08;;;;;;;17.90;9.43;;;;;;;;;;5073650;28;20384;-79
2022/10/05 01:20:00;;;;;;;18.53;10.17;;;;;;;;;;5074194;28;20033;-79
2022/10/05 01:22:35;;;;;;;;;;;;;;;;;;5056729;28;20079;-79
2022/10/05 01:25:23;;;;;;;21.17;8.55;;;;;;;;;;5074737;28;20375;-80
2022/10/05 01:27:52;;;;;;;18.70;9.35;;;;;;;;;;5075181;28;20426;-77
2022/10/05 01:30:19;;;;;;;16.60;8.90;;;;;;;;;;5056423;28;20060;-79
2022/10/05 01:33:14;;;;;;;21.70;12.87;;;;;;;;;;5055525;28;20439;-79
2022/10/05 01:36:03;;;;;;;15.60;8.93;;;;;;;;;;5056673;28;20131;-78
2022/10/05 01:38:47;;;;;;;14.90;9.07;;;;;;;;;;5055423;28;20066;-79
2022/10/05 01:41:28;;;;;;;15.20;8.70;;;;;;;;;;5073170;28;20369;-80
2022/10/05 01:44:02;;;;;;;17.52;8.23;;;;;;;;;;5054540;28;20118;-80
2022/10/05 01:46:43;;;;;;;16.45;8.50;;;;;;;;;;5072816;28;20109;-80
2022/10/05 01:49:27;;;;;;;17.55;10.25;;;;;;;;;;5073483;28;20024;-81
2022/10/05 01:52:42;;;;;;;16.45;9.23;;;;;;;;;;5073426;28;20396;-80
2022/10/05 01:55:21;;;;;;;13.87;9.13;;;;;;;;;;5038558;28;20064;-80
2022/10/05 01:58:03;;;;;;;12.30;8.30;;;;;;;;;;5073575;28;20476;-80
2022/10/05 02:00:34;;;;;;;16.77;10.00;;;;;;;;;;5073085;28;20032;-78
2022/10/05 02:03:10;;;;;;;15.90;8.88;;;;;;;;;;5056134;28;20455;-78
2022/10/05 02:06:07;;;;;;;18.30;9.00;;;;;;;;;;5055081;28;20031;-80
2022/10/05 02:08:57;;;;;;;19.90;9.17;;;;;;;;;;5073050;28;20028;-78
2022/10/05 02:11:22;;;;;;;17.33;9.03;;;;;;;;;;5073392;28;20031;-78
2022/10/05 02:14:01;;;;;;;19.17;9.37;;;;;;;;;;5073560;28;20025;-79
2022/10/05 02:16:43;;;;;;;15.83;8.93;;;;;;;;;;5055068;28;20054;-78
2022/10/05 02:19:26;;;;;;;20.50;10.35;;;;;;;;;;5072991;28;20426;-78
2022/10/05 02:22:03;;;;;;;16.10;9.40;;;;;;;;;;5055018;28;20483;-80
2022/10/05 02:24:36;;;;;;;15.43;9.17;;;;;;;;;;5054707;28;20116;-80
2022/10/05 02:27:04;;;;;;;18.60;9.87;;;;;;;;;;5073818;28;20167;-79
2022/10/05 02:29:32;;;;;;;16.63;8.75;;;;;;;;;;5054776;28;20111;-79
2022/10/05 02:32:03;;;;;;;17.90;9.70;;;;;;;;;;5054995;28;20049;-78
2022/10/05 02:34:34;;;;;;;16.52;9.30;;;;;;;;;;5073122;28;20050;-79
2022/10/05 02:37:37;;;;;;;18.33;9.27;;;;;;;;;;5055115;28;20028;-81
2022/10/05 02:40:27;;;;;;;15.40;8.40;;;;;;;;;;5073473;28;20063;-80
2022/10/05 02:43:18;;;;;;;13.13;7.97;;;;;;;;;;5073148;28;20121;-79
2022/10/05 02:46:04;;;;;;;16.70;9.00;;;;;;;;;;5073186;28;20024;-79
2022/10/05 02:48:57;;;;;;;14.37;8.67;;;;;;;;;;5072618;28;20025;-79
2022/10/05 02:51:37;;;;;;;15.53;9.10;;;;;;;;;;5054291;28;20606;-79
2022/10/05 02:54:33;;;;;;;15.23;9.50;;;;;;;;;;5054512;28;20506;-78
2022/10/05 02:57:01;;;;;;;16.63;9.43;;;;;;;;;;5054578;28;20032;-80
2022/10/05 02:59:56;;;;;;;18.53;9.30;;;;;;;;;;5054043;28;20569;-79
2022/10/05 03:02:43;;;;;;;17.87;9.70;;;;;;;;;;5072200;28;20020;-80
2022/10/05 03:05:22;;;;;;;15.60;8.87;;;;;;;;;;5070114;28;20148;-77
2022/10/05 03:08:30;;;;;;;18.10;8.77;;;;;;;;;;5054475;28;20035;-79
2022/10/05 03:11:29;;;;;;;15.20;8.63;;;;;;;;;;5032490;28;20036;-79
2022/10/05 03:14:23;;;;;;;12.93;8.33;;;;;;;;;;5071807;28;20039;-80
2022/10/05 03:17:10;;;;;;;13.80;7.97;;;;;;;;;;5054690;28;20040;-78
2022/10/05 03:19:38;;;;;;;13.47;7.57;;;;;;;;;;5071543;28;20028;-79
2022/10/05 03:22:29;;;;;;;13.50;7.77;;;;;;;;;;5053650;28;20029;-79
2022/10/05 03:25:25;;;;;;;13.57;7.87;;;;;;;;;;5059968;28;20480;-81
2022/10/05 03:28:02;;;;;;;13.30;7.77;;;;;;;;;;5070706;28;20060;-80
2022/10/05 03:30:36;;;;;;;13.10;7.87;;;;;;;;;;5072903;28;20032;-79
2022/10/05 03:33:23;;;;;;;19.37;9.17;;;;;;;;;;5070841;28;20076;-80
2022/10/05 03:35:57;;;;;;;14.63;8.37;;;;;;;;;;5070567;28;20377;-80
2022/10/05 03:38:46;;;;;;;17.77;8.80;;;;;;;;;;5071862;28;20384;-81
2022/10/05 03:41:23;;;;;;;15.83;9.03;;;;;;;;;;5072262;28;20373;-78
2022/10/05 03:44:15;;;;;;;14.03;8.43;;;;;;;;;;5074147;28;20104;-79
2022/10/05 03:46:46;;;;;;;16.20;8.93;;;;;;;;;;5092555;28;20076;-79
2022/10/05 03:49:39;;;;;;;14.10;8.13;;;;;;;;;;5074618;28;20036;-81
2022/10/05 03:52:14;;;;;;;15.83;8.63;;;;;;;;;;5074599;28;20020;-80
2022/10/05 03:55:00;;;;;;;15.63;8.90;;;;;;;;;;5073820;28;20092;-79
2022/10/05 03:57:28;;;;;;;14.40;8.33;;;;;;;;;;5074907;28;20115;-80
2022/10/05 04:00:00;;;;;;;13.03;8.97;;;;;;;;;;5073976;28;20035;-78
2022/10/05 04:02:42;;;;;;;10.80;7.28;;;;;;;;;;5092540;28;20016;-80
2022/10/05 04:05:07;;;;;;;;;;;;;;;;;;5092640;28;20039;-79
2022/10/05 04:07:48;;;;;;;13.60;7.77;;;;;;;;;;5092112;28;19908;-82
2022/10/05 04:10:28;;;;;;;13.50;7.50;;;;;;;;;;5073740;28;20505;-80
2022/10/05 04:13:13;;;;;;;12.93;8.57;;;;;;;;;;5092628;28;20024;-80
2022/10/05 04:15:45;;;;;;;15.23;8.70;;;;;;;;;;5094378;28;20024;-78
2022/10/05 04:18:27;;;;;;;15.75;8.80;;;;;;;;;;5077425;28;20019;-80
2022/10/05 04:21:24;;;;;;;14.37;8.57;;;;;;;;;;5095836;28;20055;-81
2022/10/05 04:23:57;;;;;;;12.77;8.43;;;;;;;;;;5044117;28;20035;-79
2022/10/05 04:26:37;;;;;;;16.47;8.97;;;;;;;;;;5058200;28;20060;-78
2022/10/05 04:29:40;;;;;;;20.37;8.90;;;;;;;;;;5058010;28;20036;-78
2022/10/05 04:32:15;;;;;;;16.93;8.27;;;;;;;;;;5075398;28;20033;-79
2022/10/05 04:35:18;;;;;;;13.97;8.07;;;;;;;;;;5075282;28;20043;-80
2022/10/05 04:38:09;;;;;;;17.50;9.03;;;;;;;;;;5057688;28;20021;-79
2022/10/05 04:40:42;;;;;;;16.30;8.88;;;;;;;;;;5057612;28;20405;-80
2022/10/05 04:43:32;;;;;;;15.43;9.10;;;;;;;;;;5075370;28;20029;-81
2022/10/05 04:46:28;;;;;;;15.90;9.50;;;;;;;;;;5057246;28;20029;-79
2022/10/05 04:49:05;;;;;;;19.10;9.33;;;;;;;;;;5048833;28;20510;-81
2022/10/05 04:51:53;;;;;;;16.17;8.27;;;;;;;;;;5057233;28;20119;-79
2022/10/05 04:55:00;;;;;;;18.03;9.77;;;;;;;;;;5056889;28;20040;-80
2022/10/05 04:57:50;;;;;;;15.83;8.83;;;;;;;;;;5030532;28;20584;-76
2022/10/05 05:00:27;;;;;;;18.57;8.60;;;;;;;;;;5084800;28;20349;-79
2022/10/05 05:02:57;;;;;;;16.93;8.70;;;;;;;;;;5082013;28;20678;-80
2022/10/05 05:05:41;;;;;;;16.50;8.23;;;;;;;;;;5056706;28;20029;-78
2022/10/05 05:08:19;;;;;;;20.67;8.27;;;;;;;;;;5094223;28;20039;-78
2022/10/05 05:10:47;;;;;;;16.30;8.00;;;;;;;;;;5088619;28;20077;-77
2022/10/05 05:13:45;;;;;;;15.33;8.80;;;;;;;;;;5067593;28;20094;-79
2022/10/05 05:16:41;;;;;;;14.63;8.30;;;;;;;;;;5075327;28;20023;-77
2022/10/05 05:19:19;;;;;;;15.90;7.80;;;;;;;;;;5069095;28;20031;-78
2022/10/05 05:22:03;;;;;;;13.33;7.83;;;;;;;;;;5091420;28;20016;-78
2022/10/05 05:24:34;;;;;;;17.87;8.97;;;;;;;;;;5070649;28;20036;-77
2022/10/05 05:27:28;;;;;;;14.38;8.10;;;;;;;;;;5088798;28;20451;-79
2022/10/05 05:30:25;;;;;;;16.50;8.60;;;;;;;;;;5073221;28;20572;-78
2022/10/05 05:32:57;;;;;;;24.10;9.50;;;;;;;;;;5083757;28;20044;-79
2022/10/05 05:35:35;;;;;;;15.80;8.48;;;;;;;;;;5063647;28;20092;-78
2022/10/05 05:39:03;;;;;;;16.50;8.73;;;;;;;;;;5074589;28;20032;-77
2022/10/05 05:41:31;;;;;;;17.70;9.30;;;;;;;;;;4966803;28;20049;-75
2022/10/05 05:44:11;;;;;;;16.97;9.10;;;;;;;;;;4972730;28;20023;-79
2022/10/05 05:46:39;;;;;;;15.30;8.60;;;;;;;;;;5054024;28;20100;-76
2022/10/05 05:49:48;;;;;;;12.83;7.83;;;;;;;;;;5080391;28;20032;-75
2022/10/05 05:52:49;;;;;;;15.10;8.43;;;;;;;;;;5081332;28;20028;-77
2022/10/05 05:55:35;;;;;;;15.90;8.93;;;;;;;;;;5059948;28;20040;-76
2022/10/05 05:58:16;;;;;;;14.63;9.80;;;;;;;;;;5080164;28;20062;-77
2022/10/05 06:01:06;;;;;;;13.70;8.50;;;;;;;;;;5072527;28;20377;-75
2022/10/05 06:03:45;;;;;;;14.67;9.70;;;;;;;;;;5063036;28;20035;-76
2022/10/05 06:06:26;;;;;;;13.10;7.67;;;;;;;;;;5074946;28;20020;-77
2022/10/05 06:09:22;;;;;;;16.33;8.93;;;;;;;;;;5047395;28;20060;-77
2022/10/05 06:11:56;;;;;;;13.60;8.43;;;;;;;;;;5075241;28;20042;-78
2022/10/05 06:14:30;;;;;;;14.93;8.03;;;;;;;;;;5061625;28;20036;-79
2022/10/05 06:17:11;;;;;;;17.13;7.60;;;;;;;;;;5078016;28;20024;-78
2022/10/05 06:19:39;;;;;;;16.63;8.50;;;;;;;;;;5086299;28;20179;-78
2022/10/05 06:22:32;;;;;;;13.13;7.60;;;;;;;;;;5069190;28;20042;-75
2022/10/05 06:25:08;;;;;;;16.27;8.50;;;;;;;;;;5068033;28;20047;-79
2022/10/05 06:27:56;;;;;;;14.87;7.53;;;;;;;;;;5066639;28;20445;-77
2022/10/05 06:30:22;;;;;;;34.70;9.10;;;;;;;;;;5067884;28;20124;-78
2022/10/05 06:33:23;;;;;;;11.93;7.27;;;;;;;;;;5080846;28;20154;-78
2022/10/05 06:35:58;;;;;;;13.10;8.60;;;;;;;;;;5044672;28;20047;-77
2022/10/05 06:38:45;;;;;;;13.37;7.53;;;;;;;;;;5082315;28;20468;-76
2022/10/05 06:41:41;;;;;;;15.37;8.30;;;;;;;;;;5066333;28;20032;-79
2022/10/05 06:44:24;;;;;;;13.35;7.30;;;;;;;;;;5081337;28;20023;-78
2022/10/05 06:47:08;;;;;;;22.13;9.00;;;;;;;;;;5077513;28;20142;-77
2022/10/05 06:50:08;;;;;;;17.70;9.57;;;;;;;;;;5068938;22;20053;-78
2022/10/05 06:53:11;;;;;;;11.02;6.97;;;;;;;;;;5004530;28;20037;-75
2022/10/05 06:56:06;;;;;;;13.70;7.50;;;;;;;;;;5026902;28;20511;-77
2022/10/05 06:58:55;;;;;;;12.65;7.60;;;;;;;;;;5013264;28;20044;-80
2022/10/05 07:01:41;;;;;;;13.20;7.20;;;;;;;;;;5030769;28;20043;-74
2022/10/05 07:04:45;;;;;;;12.77;7.68;;;;;;;;;;5008559;28;20037;-81
2022/10/05 07:07:18;;;;;;;16.00;8.13;;;;;;;;;;5005826;28;20574;-80
2022/10/05 07:10:11;;;;;;;13.43;7.32;;;;;;;;;;5011497;28;20041;-82
2022/10/05 07:12:56;;;;;;;12.88;6.65;;;;;;;;;;4976858;28;20583;-78
2022/10/05 07:15:34;;;;;;;14.82;7.53;;;;;;;;;;5021892;28;20150;-74
2022/10/05 07:18:10;;;;;;;14.18;7.25;;;;;;;;;;5006719;28;20037;-76
2022/10/05 07:21:05;;;;;;;18.15;8.45;;;;;;;;;;5013290;28;20034;-79
2022/10/05 07:23:53;;;;;;;9.43;7.15;;;;;;;;;;5010210;28;20064;-76
2022/10/05 07:26:49;;;;;;;15.73;8.13;;;;;;;;;;5007499;28;20045;-76
2022/10/05 07:29:25;;;;;;;13.23;8.15;;;;;;;;;;5006359;28;20518;-80
2022/10/05 07:32:06;;;;;;;23.23;7.88;;;;;;;;;;5004943;28;20041;-80
2022/10/05 07:34:44;;;;;;;11.13;6.90;;;;;;;;;;5008991;28;20120;-75
2022/10/05 07:40:29;;;;;;;15.27;6.68;;;;;;;;;;5008235;28;20056;-77
2022/10/05 07:43:13;;;;;;;11.25;7.45;;;;;;;;;;4992650;28;20048;-78
2022/10/05 07:45:46;;;;;;;24.50;7.35;;;;;;;;;;4987672;28;20095;-76
2022/10/05 07:48:20;;;;;;;11.05;6.93;;;;;;;;;;5012788;28;20041;-81
2022/10/05 07:51:15;;;;;;;14.30;6.78;;;;;;;;;;4991714;28;20942;-79
2022/10/05 07:54:01;;;;;;;18.45;6.10;;;;;;;;;;4997273;28;20068;-78
2022/10/05 07:56:54;;;;;;;10.45;5.75;;;;;;;;;;5005815;28;20049;-78
2022/10/05 07:59:30;;;;;;;10.20;6.20;;;;;;;;;;4989304;28;20163;-79
2022/10/05 08:02:32;;;;;;;20.05;11.20;;;;;;;;;;4995648;28;20128;-79
2022/10/05 08:05:06;;;;;;;8.98;4.88;;;;;;;;;;4996827;28;20059;-82
2022/10/05 08:07:34;;;;;;;10.43;5.22;;;;;;;;;;5010116;28;20039;-78
2022/10/05 08:10:19;;;;;;;12.40;5.30;;;;;;;;;;5013285;28;20027;-83
2022/10/05 08:13:43;;;;;;;8.43;5.25;;;;;;;;;;4985919;28;20034;-76
2022/10/05 08:16:11;;;;;;;7.78;4.78;;;;;;;;;;4947426;28;20043;-81
2022/10/05 08:18:58;;;;;;;12.02;5.53;;;;;;;;;;4955153;28;20755;-83
2022/10/05 08:21:46;;;;;;;12.82;5.85;;;;;;;;;;4982750;28;20180;-86
2022/10/05 08:24:42;;;;;;;15.20;6.60;;;;;;;;;;5013460;28;20841;-82
2022/10/05 08:27:49;;;;;;;15.75;7.07;;;;;;;;;;4996597;28;20033;-77
2022/10/05 08:30:16;;;;;;;12.95;7.63;;;;;;;;;;4995846;28;20133;-84
2022/10/05 08:32:54;;;;;;;15.55;7.82;;;;;;;;;;4993565;28;20516;-82
2022/10/05 08:35:42;;;;;;;12.75;6.65;;;;;;;;;;4997954;28;20072;-80
2022/10/05 08:38:28;;;;;;;10.80;5.55;;;;;;;;;;4980268;28;20033;-80
2022/10/05 08:41:03;;;;;;;13.38;5.85;;;;;;;;;;5007355;28;20819;-74
2022/10/05 08:43:41;;;;;;;10.57;5.82;;;;;;;;;;4993273;28;20029;-77
2022/10/05 08:46:16;;;;;;;10.93;5.22;;;;;;;;;;5009072;28;20280;-77
2022/10/05 08:49:09;;;;;;;10.65;4.53;;;;;;;;;;4993913;28;20025;-78
2022/10/05 08:52:10;;;;;;;9.93;4.53;;;;;;;;;;5009451;28;20036;-78
2022/10/05 08:55:11;;;;;;;7.93;4.28;;;;;;;;;;4994939;28;20025;-78
2022/10/05 08:58:07;;;;;;;10.18;4.70;;;;;;;;;;4960835;28;20044;-76
2022/10/05 09:00:53;;;;;;;6.63;3.95;;;;;;;;;;5011195;28;20030;-80
2022/10/05 09:03:52;;;;;;;12.55;4.95;;;;;;;;;;5012156;28;20022;-77
2022/10/05 09:06:52;;;;;;;11.68;4.40;;;;;;;;;;4989270;28;20041;-80
2022/10/05 09:09:53;;;;;;;7.13;5.30;;;;;;;;;;5003832;28;20018;-79
2022/10/05 09:12:28;;;;;;;4.70;3.63;;;;;;;;;;4989681;28;20046;-77
2022/10/05 09:15:03;;;;;;;8.98;3.95;;;;;;;;;;5013587;28;20033;-76
2022/10/05 09:18:02;;;;;;;8.50;3.55;;;;;;;;;;4990405;28;20128;-76
2022/10/05 09:20:34;;;;;;;5.03;3.58;;;;;;;;;;4995591;28;20647;-78
2022/10/05 09:23:14;;;;;;;7.40;5.05;;;;;;;;;;5010931;28;20106;-79
2022/10/05 09:26:02;;;;;;;7.22;3.75;;;;;;;;;;5014650;28;20033;-76
2022/10/05 09:28:42;;;;;;;7.70;5.45;;;;;;;;;;4995790;28;20034;-76
2022/10/05 09:31:30;;;;;;;4.68;3.60;;;;;;;;;;4990516;28;20033;-77
2022/10/05 09:34:20;;;;;;;7.22;3.42;;;;;;;;;;4993087;28;20078;-75
2022/10/05 09:37:18;;;;;;;5.72;3.53;;;;;;;;;;5005509;28;20025;-77
2022/10/05 09:39:58;;;;;;;8.75;3.80;;;;;;;;;;5009057;28;20034;-78
2022/10/05 09:43:00;;;;;;;4.90;3.53;;;;;;;;;;4989046;28;20034;-78
2022/10/05 09:45:34;;;;;;;6.78;2.95;;;;;;;;;;4972600;28;20113;-74
2022/10/05 09:48:05;;;;;;;6.20;2.65;;;;;;;;;;4988409;28;20029;-76
2022/10/05 09:50:47;;;;;;;7.05;2.97;;;;;;;;;;4996411;28;20049;-77
2022/10/05 09:53:42;;;;;;;5.03;2.85;;;;;;;;;;4996750;28;20134;-75
2022/10/05 09:56:34;;;;;;;6.20;3.00;;;;;;;;;;4988120;28;20025;-78
2022/10/05 09:59:18;;;;;;;;;;;;;;;;;;4995952;28;20115;-79
2022/10/05 10:02:15;;;;;;;6.60;2.83;;;;;;;;;;4992723;28;19956;-77
2022/10/05 10:05:15;;;;;;;5.65;2.65;;;;;;;;;;5011620;28;20532;-75
2022/10/05 10:07:49;;;;;;;3.85;2.72;;;;;;;;;;4995204;28;20034;-78
2022/10/05 10:10:15;;;;;;;4.57;2.10;;;;;;;;;;5014073;28;20033;-76
2022/10/05 10:13:04;;;;;;;6.90;2.75;;;;;;;;;;4989587;28;20056;-76
2022/10/05 10:15:58;;;;;;;7.93;2.60;;;;;;;;;;4995042;28;20040;-76
2022/10/05 10:18:42;;;;;;;9.75;5.13;;;;;;;;;;4994218;28;20478;-78
2022/10/05 10:21:28;;;;;;;4.38;2.47;;;;;;;;;;5008079;28;20037;-76
2022/10/05 10:24:13;;;;;;;3.85;2.47;;;;;;;;;;4997034;28;20022;-78
2022/10/05 10:27:01;;;;;;;5.95;2.70;;;;;;;;;;4992114;28;20026;-76
2022/10/05 10:29:44;;;;;;;7.85;2.95;;;;;;;;;;4996032;28;20122;-81
2022/10/05 10:32:37;;;;;;;9.57;3.05;;;;;;;;;;4994454;28;20033;-77
2022/10/05 10:35:40;;;;;;;5.78;3.42;;;;;;;;;;5004030;28;20210;-77
2022/10/05 10:38:25;;;;;;;4.68;2.65;;;;;;;;;;4998102;28;20104;-78
2022/10/05 10:41:09;;;;;;;9.07;3.63;;;;;;;;;;4993642;28;20096;-78
2022/10/05 10:44:11;;;;;;;7.50;3.70;;;;;;;;;;4997119;28;20669;-78
2022/10/05 10:47:08;;;;;;;8.55;3.08;;;;;;;;;;4993073;28;20053;-77
2022/10/05 10:49:34;;;;;;;6.60;3.10;;;;;;;;;;4992399;28;20053;-77
2022/10/05 10:52:21;;;;;;;4.70;3.25;;;;;;;;;;5010521;28;20838;-77
2022/10/05 10:55:18;;;;;;;7.47;3.17;;;;;;;;;;4990795;28;20537;-77
2022/10/05 10:58:02;;;;;;;8.27;3.47;;;;;;;;;;5004484;28;20029;-77
2022/10/05 11:00:33;;;;;;;3.92;2.65;;;;;;;;;;4994242;28;20770;-76
2022/10/05 11:02:59;;;;;;;7.82;3.03;;;;;;;;;;5008074;28;20049;-77
2022/10/05 11:05:51;;;;;;;7.93;3.00;;;;;;;;;;5010710;28;20026;-77
2022/10/05 11:08:50;;;;;;;6.45;3.00;;;;;;;;;;5012123;28;20044;-76
2022/10/05 11:11:36;;;;;;;5.88;2.78;;;;;;;;;;5003818;28;20172;-76
2022/10/05 11:14:39;;;;;;;5.13;2.50;;;;;;;;;;4989398;28;20127;-78
2022/10/05 11:17:16;;;;;;;9.95;2.85;;;;;;;;;;4993468;28;20108;-78
2022/10/05 11:20:08;;;;;;;9.00;2.97;;;;;;;;;;4996136;28;20042;-79
2022/10/05 11:22:52;;;;;;;3.67;2.47;;;;;;;;;;5002062;28;20032;-77
2022/10/05 11:25:54;;;;;;;5.50;3.10;;;;;;;;;;4993751;28;20057;-77
2022/10/05 11:28:50;;;;;;;3.22;2.38;;;;;;;;;;5010584;28;20030;-76
2022/10/05 11:31:49;;;;;;;2.75;2.30;;;;;;;;;;5012623;28;20112;-77
2022/10/05 11:34:40;;;;;;;8.43;3.40;;;;;;;;;;4963723;28;20049;-77
2022/10/05 11:37:30;;;;;;;;;;;;;;;;;;4990065;28;20059;-79
2022/10/05 11:40:16;;;;;;;7.68;2.60;;;;;;;;;;4991200;28;19925;-78
2022/10/05 11:43:00;;;;;;;6.07;2.70;;;;;;;;;;4988568;28;20167;-76
2022/10/05 11:45:54;;;;;;;8.10;2.70;;;;;;;;;;4993685;28;21041;-74
2022/10/05 11:48:32;;;;;;;5.80;2.47;;;;;;;;;;5009871;28;20501;-77
2022/10/05 11:51:19;;;;;;;5.55;2.63;;;;;;;;;;5010191;28;20412;-77
2022/10/05 11:54:25;;;;;;;5.80;2.67;;;;;;;;;;5001583;28;20049;-74
2022/10/05 11:57:11;;;;;;;4.25;2.55;;;;;;;;;;4923269;29;20121;-73
2022/10/05 11:59:40;;;;;;;9.90;3.53;;;;;;;;;;4987815;28;20046;-76
2022/10/05 12:02:56;;;;;;;8.38;2.70;;;;;;;;;;4988706;28;20049;-76
2022/10/05 12:05:38;;;;;;;5.95;2.83;;;;;;;;;;4947712;28;20040;-77
2022/10/05 12:08:12;;;;;;;9.80;2.58;;;;;;;;;;4988408;28;20037;-76
2022/10/05 12:10:45;;;;;;;6.68;2.30;;;;;;;;;;4989248;28;20096;-77
2022/10/05 12:13:22;;;;;;;5.22;2.65;;;;;;;;;;4971525;28;20047;-76
2022/10/05 12:16:03;;;;;;;6.22;2.95;;;;;;;;;;4990912;28;20057;-76
2022/10/05 12:18:32;;;;;;;6.87;2.90;;;;;;;;;;4993983;28;20116;-76
2022/10/05 12:21:03;;;;;;;9.55;4.85;;;;;;;;;;5007786;28;20358;-78
2022/10/05 12:24:11;;;;;;;8.65;3.33;;;;;;;;;;5006104;28;20060;-73
2022/10/05 12:26:51;;;;;;;4.68;2.75;;;;;;;;;;4988849;28;20042;-77
2022/10/05 12:29:37;;;;;;;3.95;2.28;;;;;;;;;;4992332;28;20069;-74
2022/10/05 12:32:21;;;;;;;6.35;2.92;;;;;;;;;;5009420;28;20037;-75
2022/10/05 12:35:26;;;;;;;4.63;2.38;;;;;;;;;;5016534;28;20026;-76
2022/10/05 12:38:12;;;;;;;5.28;2.40;;;;;;;;;;4992589;28;20898;-78
2022/10/05 12:41:26;;;;;;;11.43;4.35;;;;;;;;;;4989892;28;20895;-75
2022/10/05 12:44:16;;;;;;;4.43;2.13;;;;;;;;;;5014974;28;20120;-78
2022/10/05 12:47:22;;;;;;;5.15;2.33;;;;;;;;;;4991945;28;20087;-76
2022/10/05 12:49:54;;;;;;;6.25;2.40;;;;;;;;;;4995370;28;20063;-74
2022/10/05 12:52:37;;;;;;;20.02;4.13;;;;;;;;;;4994587;28;20046;-78
2022/10/05 12:55:29;;;;;;;8.38;2.70;;;;;;;;;;5016114;28;20038;-76
2022/10/05 12:58:08;;;;;;;4.05;2.22;;;;;;;;;;4993553;28;20052;-76
2022/10/05 13:00:44;;;;;;;6.75;1.92;;;;;;;;;;4996710;28;20446;-77
2022/10/05 13:03:33;;;;;;;5.32;2.15;;;;;;;;;;4995627;28;20052;-79
2022/10/05 13:06:40;;;;;;;4.95;2.10;;;;;;;;;;5012708;28;20025;-80
2022/10/05 13:09:09;;;;;;;10.07;3.10;;;;;;;;;;4999159;28;20101;-78
2022/10/05 13:11:47;;;;;;;5.43;2.40;;;;;;;;;;4993965;28;20307;-75
2022/10/05 13:14:35;;;;;;;10.18;3.70;;;;;;;;;;4999396;28;20060;-76
2022/10/05 13:17:33;;;;;;;6.15;3.13;;;;;;;;;;4998265;28;20033;-76
2022/10/05 13:20:13;;;;;;;4.22;2.22;;;;;;;;;;4999054;28;20036;-74
2022/10/05 13:22:48;;;;;;;4.75;2.65;;;;;;;;;;4991427;28;20025;-76
2022/10/05 13:25:26;;;;;;;7.22;2.88;;;;;;;;;;5012050;28;20042;-73
2022/10/05 13:28:32;;;;;;;7.50;2.97;;;;;;;;;;4991160;28;20128;-76
2022/10/05 13:31:11;;;;;;;6.32;2.50;;;;;;;;;;5005422;28;20045;-76
2022/10/05 13:34:13;;;;;;;4.78;2.50;;;;;;;;;;4994643;28;20036;-75
2022/10/05 13:37:06;;;;;;;7.40;3.15;;;;;;;;;;4992899;28;20498;-74
2022/10/05 13:40:06;;;;;;;6.88;2.97;;;;;;;;;;4994065;28;20037;-75
2022/10/05 13:43:02;;;;;;;9.55;2.72;;;;;;;;;;5007723;28;20049;-75
2022/10/05 13:45:43;;;;;;;9.90;4.68;;;;;;;;;;5010836;28;20052;-76
2022/10/05 13:49:00;;;;;;;4.53;2.95;;;;;;;;;;4993089;28;20061;-76
2022/10/05 13:51:49;;;;;;;5.78;3.25;;;;;;;;;;4994992;28;20060;-78
2022/10/05 13:54:46;;;;;;;5.57;2.70;;;;;;;;;;4994754;28;20052;-75
2022/10/05 13:57:34;;;;;;;6.38;3.03;;;;;;;;;;5009733;28;20037;-75
2022/10/05 14:00:16;;;;;;;5.55;3.00;;;;;;;;;;4993305;28;20435;-75
2022/10/05 14:02:46;;;;;;;4.70;2.80;;;;;;;;;;5007724;28;20022;-75
2022/10/05 14:05:28;;;;;;;5.22;2.55;;;;;;;;;;5015430;28;20117;-75
2022/10/05 14:08:03;;;;;;;17.77;5.00;;;;;;;;;;4994401;28;20479;-75
2022/10/05 14:10:39;;;;;;;3.70;2.40;;;;;;;;;;5020735;28;20033;-76
2022/10/05 14:13:25;;;;;;;11.82;3.08;;;;;;;;;;5017135;28;20036;-76
2022/10/05 14:16:21;;;;;;;12.30;3.88;;;;;;;;;;5019217;28;20037;-74
2022/10/05 14:19:05;;;;;;;6.10;3.28;;;;;;;;;;5009359;28;20040;-78
2022/10/05 14:21:46;;;;;;;8.38;3.50;;;;;;;;;;5000294;28;20236;-76
2022/10/05 14:24:31;;;;;;;7.97;2.60;;;;;;;;;;5017050;28;20025;-73
2022/10/05 14:27:01;;;;;;;11.45;5.28;;;;;;;;;;5003485;28;20021;-79
2022/10/05 14:29:36;;;;;;;8.82;3.40;;;;;;;;;;5004488;28;20056;-77
2022/10/05 14:32:16;;;;;;;9.43;3.45;;;;;;;;;;5016025;28;20549;-78
2022/10/05 14:34:53;;;;;;;7.35;2.80;;;;;;;;;;5008029;28;20037;-78
2022/10/05 14:37:24;;;;;;;5.47;3.05;;;;;;;;;;5005107;28;20079;-77
2022/10/05 14:39:56;;;;;;;10.75;6.35;;;;;;;;;;5024169;28;20367;-75
2022/10/05 14:42:22;;;;;;;;;;;;;;;;;;5003391;28;20033;-77
2022/10/05 14:45:13;;;;;;;10.07;3.80;;;;;;;;;;4995757;28;19996;-81
2022/10/05 14:47:52;;;;;;;17.98;4.50;;;;;;;;;;5001897;28;20041;-77
2022/10/05 14:50:25;;;;;;;5.60;3.50;;;;;;;;;;5023709;28;20038;-78
2022/10/05 14:53:15;;;;;;;11.43;3.85;;;;;;;;;;5026805;28;20022;-77
2022/10/05 14:55:54;;;;;;;4.88;2.25;;;;;;;;;;4996843;28;20466;-77
2022/10/05 14:58:57;;;;;;;5.78;2.65;;;;;;;;;;5028438;28;20053;-77
2022/10/05 15:01:33;;;;;;;10.15;3.13;;;;;;;;;;5011661;28;20471;-79
2022/10/05 15:04:24;;;;;;;11.15;3.53;;;;;;;;;;5017788;28;20041;-78
2022/10/05 15:07:05;;;;;;;6.85;3.72;;;;;;;;;;5018661;28;20135;-78
2022/10/05 15:09:48;;;;;;;5.27;3.37;;;;;;;;;;5007967;28;20041;-79
2022/10/05 15:12:21;;;;;;;13.48;3.25;;;;;;;;;;5027279;28;20282;-79
2022/10/05 15:14:50;;;;;;;7.22;3.65;;;;;;;;;;5022124;28;20072;-77
2022/10/05 15:17:19;;;;;;;8.27;3.00;;;;;;;;;;5024598;28;20414;-78
2022/10/05 15:20:04;;;;;;;10.75;3.30;;;;;;;;;;4992105;28;20117;-78
2022/10/05 15:22:47;;;;;;;3.80;3.00;;;;;;;;;;5010220;28;20041;-77
2022/10/05 15:25:25;;;;;;;5.53;3.05;;;;;;;;;;5010887;28;20389;-78
2022/10/05 15:28:10;;;;;;;7.30;3.42;;;;;;;;;;5001694;28;20052;-78
2022/10/05 15:30:40;;;;;;;4.72;3.15;;;;;;;;;;5013474;28;20104;-78
2022/10/05 15:33:17;;;;;;;8.45;3.30;;;;;;;;;;5011772;28;20093;-77
2022/10/05 15:35:53;;;;;;;23.60;8.05;;;;;;;;;;5011503;28;20052;-78
2022/10/05 15:38:35;;;;;;;7.88;3.95;;;;;;;;;;5029059;28;20573;-78
2022/10/05 15:41:06;;;;;;;5.47;3.40;;;;;;;;;;5012484;28;20131;-78
2022/10/05 15:43:45;;;;;;;9.40;5.32;;;;;;;;;;4991622;28;20026;-78
2022/10/05 15:46:44;;;;;;;11.20;4.15;;;;;;;;;;5011429;28;20497;-77
2022/10/05 15:49:45;;;;;;;4.30;3.03;;;;;;;;;;5027155;28;20124;-77
2022/10/05 15:52:16;;;;;;;6.35;2.90;;;;;;;;;;5011877;28;20021;-77
2022/10/05 15:55:13;;;;;;;10.77;4.55;;;;;;;;;;5029695;28;20163;-78
2022/10/05 15:57:47;;;;;;;17.70;6.18;;;;;;;;;;5011347;28;20083;-77
2022/10/05 16:00:15;;;;;;;12.25;4.25;;;;;;;;;;5011950;28;20125;-78
2022/10/05 16:03:00;;;;;;;10.60;4.00;;;;;;;;;;5004540;28;20033;-78
2022/10/05 16:08:49;;;;;;;8.73;4.53;;;;;;;;;;5026447;28;20044;-78
2022/10/05 16:11:42;;;;;;;4.75;3.40;;;;;;;;;;5032561;28;20063;-77
2022/10/05 16:14:19;;;;;;;7.45;3.42;;;;;;;;;;5030929;28;20044;-79
2022/10/05 16:17:01;;;;;;;8.23;3.65;;;;;;;;;;5015081;28;20026;-77
2022/10/05 16:19:26;;;;;;;15.57;6.10;;;;;;;;;;5015523;28;20048;-78
2022/10/05 16:22:21;;;;;;;5.78;3.30;;;;;;;;;;5014725;28;20122;-77